Address 0x2c521ba1b75d1474ac018562452ee89725b49419

Overview

Balance:
0.061256350167517857 AVAX

AVAX Value:
$7.46 (@ $121.76/AVAX)

Token:
Txn Hash Method
Block
From
To
Value [Txn Fee]
0x6e666167c249172d17a5c2e31dd95fbfe5ca6fd2b9c296391f0add8d706930c1Mint76397742021-11-30 21:25:334 mins ago0x2c521ba1b75d1474ac018562452ee89725b49419OUT 0x6791f4e53452d55c1d132374ec8456d9880aa6af0 AVAX0.0073078525
0x765d6e01d2730efc24023f30e67bb0b2090b9745ff33a605f3d296795228ddc0Claim Many From ...76397422021-11-30 21:24:275 mins ago0x2c521ba1b75d1474ac018562452ee89725b49419OUT 0x262d7e2df7b08534015bc7cf259d9186726849c20 AVAX0.00498687525
0xc30c7c01feaf8887a6f4d9f20763188cd9af869fca7b29f3b5d94da43746b693Add Many To Barn...76087192021-11-30 3:56:4017 hrs 33 mins ago0x2c521ba1b75d1474ac018562452ee89725b49419OUT 0x262d7e2df7b08534015bc7cf259d9186726849c20 AVAX0.00394037525
0xf7ebb265391b129d9352d0af0eec0f7e36ceaeb9c336c51fc434ea7d8cc25e88Mint76086162021-11-30 3:53:1517 hrs 36 mins ago0x2c521ba1b75d1474ac018562452ee89725b49419OUT 0x6791f4e53452d55c1d132374ec8456d9880aa6af0 AVAX0.00712462525
0x24a0da5420fb894355ece152f3ebdfe496646d52f4252b352163653c1d6d3dd9Claim Many From ...76086002021-11-30 3:52:4517 hrs 37 mins ago0x2c521ba1b75d1474ac018562452ee89725b49419OUT 0x262d7e2df7b08534015bc7cf259d9186726849c20 AVAX0.0045997525
0xcbeed308dd3fa45a12efca720c97ed232f96c86e9c18b18174288736c38bd2e2Add Many To Barn...75810422021-11-29 12:30:351 day 8 hrs ago0x2c521ba1b75d1474ac018562452ee89725b49419OUT 0x262d7e2df7b08534015bc7cf259d9186726849c20 AVAX0.00394037525
0xa33ae34384692860c819148bfdaecbf45a689b99da491e78eb9f30ddd91100b5Mint75809502021-11-29 12:27:321 day 9 hrs ago0x2c521ba1b75d1474ac018562452ee89725b49419OUT 0x6791f4e53452d55c1d132374ec8456d9880aa6af0 AVAX0.0075924525
0xad3e33ee615bb08e2fa992d2b334dae41474b4fb293466989f341700c53b8045Claim Many From ...75809332021-11-29 12:26:581 day 9 hrs ago0x2c521ba1b75d1474ac018562452ee89725b49419OUT 0x262d7e2df7b08534015bc7cf259d9186726849c20 AVAX0.0061486525
0x8398b2f731656c2d374f4b358b0aa74b0535658f4c14896d0ed86f24a3bf2e4dAdd Many To Barn...75620152021-11-29 1:54:451 day 19 hrs ago0x2c521ba1b75d1474ac018562452ee89725b49419OUT 0x262d7e2df7b08534015bc7cf259d9186726849c20 AVAX0.00394037525
0x6cf12980a783c486ca42ba73525d5c5336b3e21e4200b9b30f8ced5ad748dd2cMint75618172021-11-29 1:48:071 day 19 hrs ago0x2c521ba1b75d1474ac018562452ee89725b49419OUT 0x6791f4e53452d55c1d132374ec8456d9880aa6af0 AVAX0.00712462525
0xb93fdc4e4ce2cb07fe3737ce2404eb4d43f4b6de6950fee4c4abc6bc9a6e1159Claim Many From ...75617852021-11-29 1:47:041 day 19 hrs ago0x2c521ba1b75d1474ac018562452ee89725b49419OUT 0x262d7e2df7b08534015bc7cf259d9186726849c20 AVAX0.00582291750125.267267083
0xa51cdf1420e86aaf0a12df3e1cd0262a9588ee3041af38ece792d18d761b9974Claim Many From ...75589752021-11-29 0:12:571 day 21 hrs ago0x2c521ba1b75d1474ac018562452ee89725b49419OUT 0x262d7e2df7b08534015bc7cf259d9186726849c20 AVAX0.00576132525
0x8ac4dd91047b24a494250b8eb946b444247bde2ccaee0b9034388382172fcaa30x2da6298775546552021-11-28 21:48:251 day 23 hrs ago0x2c521ba1b75d1474ac018562452ee89725b49419OUT 0xcfb6ee27d82beb1b0f3ad501b968f01cd7cc59610 AVAX0.00254269960534.639796273
0x58560b61273a23056211f2bc1e7548b63b2d1249a8885cd93e2b897b000252adAdd Many To Barn...75517622021-11-28 20:11:482 days 1 hr ago0x2c521ba1b75d1474ac018562452ee89725b49419OUT 0x262d7e2df7b08534015bc7cf259d9186726849c20 AVAX0.00414162542526.276848177
0x286f6ca2ce8ec7664fb5d8c1838ec68e5c61a8e45b3eef54dff123454a05d11eMint75512912021-11-28 19:56:072 days 1 hr ago0x2c521ba1b75d1474ac018562452ee89725b49419OUT 0x6791f4e53452d55c1d132374ec8456d9880aa6af0 AVAX0.00772845785426.694591122
0x741b88e154315d95a4e023cceaa90abbf902db949f279627c98fa1321ceb812bClaim Many From ...75512732021-11-28 19:55:322 days 1 hr ago0x2c521ba1b75d1474ac018562452ee89725b49419OUT 0x262d7e2df7b08534015bc7cf259d9186726849c20 AVAX0.00483706395626.289819862
0x8f00e5b62c7d907f7f3fb5e5c240f71677d7a7908da028112aa3b401089cb725Approve75230602021-11-28 4:13:212 days 17 hrs ago0x2c521ba1b75d1474ac018562452ee89725b49419OUT Wrapped AVAX0 AVAX0.00116087525
0x985768d8eee79154ec54d58f2ab83c22250524b56770f95a18f076f6c284410dDeposit75230432021-11-28 4:12:482 days 17 hrs ago0x2c521ba1b75d1474ac018562452ee89725b49419OUT Wrapped AVAX0.1 AVAX0.0011235525
0x4591af7863020a87c7536e34b285638d06708a60768ee1cd1e358b89a6c01e00Add Many To Barn...75226612021-11-28 3:59:532 days 17 hrs ago0x2c521ba1b75d1474ac018562452ee89725b49419OUT 0x262d7e2df7b08534015bc7cf259d9186726849c20 AVAX0.0044505525
0x8373fa0c023149300d261af958c368e3ea270de6b1e318e6c7c5ae44d3033fa40x2da6298775226472021-11-28 3:59:242 days 17 hrs ago0x2c521ba1b75d1474ac018562452ee89725b49419OUT 0xcfb6ee27d82beb1b0f3ad501b968f01cd7cc59610 AVAX0.001835125
0xe3fa4b2543456f09d4a0937b61bd4408807f8ab3c415ef8a1e15e2b382967fcf0x2da6298775224672021-11-28 3:53:172 days 17 hrs ago0x2c521ba1b75d1474ac018562452ee89725b49419OUT 0xcfb6ee27d82beb1b0f3ad501b968f01cd7cc59610 AVAX0.001835425
0x206ddcc8c6f1a19736e6a6554db219c3312bb4cfa5a5f2bf65fbe3031593e585Claim Many From ...75223112021-11-28 3:48:052 days 17 hrs ago0x2c521ba1b75d1474ac018562452ee89725b49419OUT 0x262d7e2df7b08534015bc7cf259d9186726849c20 AVAX0.0049202525
0xd1f99316e0055c47f814cd9bdada22b8f9486aa5649e264ec092f29d2ee22c36Add Many To Barn...75203002021-11-28 2:40:332 days 18 hrs ago0x2c521ba1b75d1474ac018562452ee89725b49419OUT 0x262d7e2df7b08534015bc7cf259d9186726849c20 AVAX0.00394037525
0x2176465fbaedd3adca663ccc1c409053d917485e464b8ad18e055eccab51c295Add Many To Barn...75202802021-11-28 2:39:532 days 18 hrs ago0x2c521ba1b75d1474ac018562452ee89725b49419OUT 0x262d7e2df7b08534015bc7cf259d9186726849c20 AVAX0.00405046384625.170354872
0xf950bdf30d2dc23057919920e91c53d1675a155e0f99e564eeb656712cf6daa9Mint75201932021-11-28 2:36:582 days 18 hrs ago0x2c521ba1b75d1474ac018562452ee89725b49419OUT 0x6791f4e53452d55c1d132374ec8456d9880aa6af0 AVAX0.00719487525
[ Download CSV Export 
Latest 7 internal transactions
Parent Txn Hash Block From To Value
0x20583b1439df5cc09341cea014adb1ed39eae10e24ec4e8dc053424c0913750e75201532021-11-28 2:35:392 days 18 hrs ago Trader Joe: Router0x2c521ba1b75d1474ac018562452ee89725b494190.207387173294968788 AVAX
0xb4678cf29dd62734ad25921bdc24a5f4cd7e4732b8eed3710b672be3ccb50d1975174332021-11-28 1:04:392 days 20 hrs ago Wrapped AVAX0x2c521ba1b75d1474ac018562452ee89725b494192.05 AVAX
0xb8b80e8d9552f0a8022f6a17189c79072a8d2a558281f5856a56a7c6a7001a9875169772021-11-28 0:49:192 days 20 hrs ago Trader Joe: Router0x2c521ba1b75d1474ac018562452ee89725b494190.004794342755846233 AVAX
0x3c4858a0e893bbb4aa0fac2b1fc7dfb33419923c470d9845e52f1bc04e40241475169232021-11-28 0:47:252 days 20 hrs ago Wrapped AVAX0x2c521ba1b75d1474ac018562452ee89725b494192.2 AVAX
0x22673caceaf33a9ccd0b37f2caa50449079e808f321c9249d705d4092838fe0a74414492021-11-26 6:26:534 days 15 hrs ago Trader Joe: Router0x2c521ba1b75d1474ac018562452ee89725b494196.049251662735343912 AVAX
0x6ca66b8099fd945f5f5545a8cf0185b31231598a135d5a8ab7012938e192670474386642021-11-26 4:53:444 days 16 hrs ago Trader Joe: Router0x2c521ba1b75d1474ac018562452ee89725b494190.237714265502980949 AVAX
0x640f2b7d03bfd0db11ba1d73bbaed91aa777234d5bcb76e6a5332c7ae58a8c8874353342021-11-26 3:02:244 days 18 hrs ago Trader Joe: Router0x2c521ba1b75d1474ac018562452ee89725b494190.118181308335054959 AVAX
[ Download CSV Export 
Loading

Contract Name:
0

Compiler Version
0

Optimization Enabled:
0

Other Settings:
-NA-
Block Transaction Gas Used Reward
Age Block Fee Address BC Fee Address Voting Power Jailed Incoming
Block Uncle Number Difficulty Gas Used Reward
Loading
Make sure to use the "Vote Down" button for any spammy posts, and the "Vote Up" for interesting conversations.